Vero Beach, FL (32960)

1:50 PM EDT on September 05, 2015 (GMT -0400)
Vero Beach Municipal | | Change Station
CLOSE
Current Station
Airport
Location: Vero Beach,
Elevation: 23 ft
Nearby Weather Stations

Elev 23 ft 27.66 °N, 80.42 °W | Updated 57 minutes ago

Clear
Clear
89 °F
Feels Like 96 °F
N
10
Wind Variable Wind from NE

Today
High -- | Low -- °F
--% Chance of Precip.
Yesterday
High -- | Low -- °F
Precip. -- in
7:02 AM 7:38 PM
Waning Gibbous, 46% visible
Pressure 30.00 in
Visibility 10.0 miles
Clouds Clear
Heat Index 96 °F
Dew Point 72 °F
Humidity 57%
Rainfall 0.00 in
Snow Depth Not available.
UV 14 out of 12
Pollen 2.00 out of 12
Air Quality Not available.
Flu Activity Not available.
METAR KVRB 051653Z 04009KT 10SM CLR 32/22 A3001 RMK AO2 SLP159 T03170222
Pressure 30.00 in
Visibility 10.0 miles
Clouds Clear
Heat Index 96 °F
Dew Point 72 °F
Humidity 57%
Rainfall 0.00 in
Snow Depth Not available.
UV 14 out of 12
Pollen 2.00 out of 12
Air Quality Not available.
Flu Activity Not available.
METAR KVRB 051653Z 04009KT 10SM CLR 32/22 A3001 RMK AO2 SLP159 T03170222
Nowcast | as of 10:12 am EDT on September 5, 2015

Scattered lightning storms are expected to develop just inland from the coast through early afternoon as the East Coast sea breeze develops. Slow storm motion toward the south at 10 mph will produce locally heavy rainfall which will cause temporary minor flooding of low lying and poor drainage areas. Storm coverage will increase this afternoon over the interior from Lake County southward across the Orlando Metro to Okeechobee. Dangerous lightning strikes will be the primary threat. Additional details...including graphics are available online at: http://www.Srh.NOAA.Gov/mlb/blog.Php

×

10-Day Weather Forecast

×

Almanac

Astronomy

Sep. 05, 2015 Rise Set
Actual Time
Civil Twilight
Nautical Twilight
Astronomical Twilight
Moon
Length of Visible Light
Length of Day
Tomorrow will be .
, % of the Moon is Illuminated

Today's Extremes

State Highs State Lows

Community

WunderPhotos

Upload Photos

1,852,508 photos uploaded!

WunderBlogs® & News

Nearby

Air Quality

  Air Quality AQ Index Pollutant
Not available.

Snow Depth

Station Depth Elevation

Earthquake Activity

City Distance Mag. Time & Date
Minimum magnitude displayed is 2.5.

Coastal Water Temperatures

Place Temperature

Stations

Nearby Weather Stations

Station Location Temp. Windchill Dew Point Humidity Wind Precip. Elev Updated Type